Portada
METAR-TAF:

METAR-TAF

Aeropuertos :

Atenas, Grecia

Aeropuerto Internacional Eleftherios Venizelos

latitud: 37-56N, longitud: 023-56E, altitud: 94 m

Observación

El informe se hizo hace 39 minutos, a las 18:50 UTC
Viento 11 kt del norte-noroeste, variando entre noroeste y norte
Temperatura 30°C
Humedad 24%
Presión 1012 hPa
Visibilidad 10 km o más
sin nubes por debajo de 1500 m y sin presencia de cumulonimbus.

METAR: LGAV 171850Z 34011KT 310V010 CAVOK 30/07 Q1012 NOSIG

Hora: 22:29 (19:29 UTC)

Pronóstico

El informe se hizo hace 2 horas y 29 minutos, a las 17:00 UTC
Pronóstico válido del 17 a las 18 UTC al 18 a las 18 UTC
Viento 14 kt del norte
Visibilidad 10 km o más
Escasas nubes a una altura de 2000 ft
Evolucionando progresivamente
del 18 a las 04 UTC al 18 a las 06 UTC
Viento 15 kt del norte-noreste con ráfagas de 25 kt

TAF: LGAV 171700Z 1718/1818 36014KT 9999 FEW020 BECMG 1804/1806 02015G25KT

Observaciones y pronósticos meteorológicos de más de 4000 aeropuertos (mensajes METAR y TAF).

Los puntos amarillos y rojos representan las estaciones disponibles.

Ponga el ratón en el punto deseado para ver el nombre de la estación.

Haga clic para ver las observaciones y los pronósticos meteorológicos.

Para cambiar el mapa : haga clic en los botones verdes con una cruz de color negro para hacer un zoom, en el botón verde con un guión para alejar o en las flechas verdes para mapas adyacentes.


METAR-TAF: